Hlavní strana
METAR-TAF:

METAR-TAF

Letiště :

Letiště Vaasa

Vaasa, Finsko

zeměpisná šířka: 63-03N, zeměpisná délka: 021-46E, výška: 4 m

Aktuální stav počasí

Zpráva byla vytvořena před 12 minutami, v 02:50 UTC
Jižní vítr 10 kt
Teplota 13°C
Vlhkost vzduchu 94%
Tlak 1008 hPa
Viditelnost 10 km a více
Žádná oblačnost pod 1500 m, nevyskytují se cumulonimby.

METAR: EFVA 200250Z AUTO 18010KT CAVOK 13/12 Q1008

Čas: 06:02 (03:02 UTC)

Předpověď počasí

Zpráva byla vytvořena před 32 minutami, v 02:30 UTC
Předpověď platná od 20 v 03 UTC do 21 v 03 UTC
Jižní vítr 10 kt
Viditelnost 10 km a více
Žádná oblačnost pod 1500 m, nevyskytují se cumulonimby.
Dočasný
od 20 v 08 UTC do 20 v 13 UTC
Jihojihozápadní vítr 15 kt s nárazy do 25 kt
Skoro jasno ve výšce 2500 ft, Cumulonimbus.
Dočasný
od 20 v 13 UTC do 20 v 17 UTC
Jihojihozápadní vítr 15 kt s nárazy do 25 kt

TAF: EFVA 200230Z 2003/2103 19010KT CAVOK TEMPO 2008/2013 21015G25KT FEW025CB TEMPO 2013/2017 21015G25KT

Stav a předpovědi počasí z více než 4 000 letišť (zprávy METAR a TAF).

Červené a žluté tečky na mapě představují dostupné meteorologické stanice.

Když kurzor umístíte na tečku, zobrazí se název stanice.

Pak kliknutím zobrazíte stav a předpověď počasí.

Chcete-li změnit mapu, kliknutím na zelené tlačítko se znaménkem +mapu přiblížíte, kliknutím na zelené tlačítko se znaménkem – mapu oddálíte a kliknutím na zelené šipky přejdete na sousední mapy.


METAR-TAF: